Time;durP1;ratioP1;P1;durP2;ratioP2;P2;SDS_P1;SDS_P2;PMS_P1;PMS_P2;Temp;Humidity;BMP_temperature;BMP_pressure;BME280_temperature;BME280_humidity;BME280_pressure;Samples;Min_cycle;Max_cycle;Signal;HPM_P1;HPM_P2
2023/09/21 08:43:49;;;;;;;17.85;7.40;;;;;;;-145.67;100.00;66521.78;6195532;22;1417079;-89
2023/09/21 08:46:15;;;;;;;21.73;7.60;;;;;;;-145.67;100.00;66521.78;6183671;23;20349;-89
2023/09/21 08:48:41;;;;;;;26.75;9.07;;;;;;;-145.67;100.00;66521.78;6210031;23;20031;-93
2023/09/21 08:51:11;;;;;;;17.35;6.25;;;;;;;-145.67;100.00;66521.78;6213462;23;20001;-90
2023/09/21 08:53:39;;;;;;;12.20;3.17;;;;;;;-145.67;100.00;66521.78;6209869;23;20079;-90
2023/09/21 08:56:05;;;;;;;5.00;1.83;;;;;;;-145.67;100.00;66521.78;6183737;23;20095;-89
2023/09/21 08:58:34;;;;;;;6.22;1.60;;;;;;;-145.67;100.00;66521.78;6209490;23;20177;-89
2023/09/21 09:01:00;;;;;;;8.25;2.08;;;;;;;-145.67;100.00;66521.78;6210242;23;20423;-90
2023/09/21 09:03:26;;;;;;;7.10;2.20;;;;;;;-145.67;100.00;66521.78;6209542;23;20016;-89
2023/09/21 09:05:55;;;;;;;6.55;1.95;;;;;;;-145.67;100.00;66521.78;6184133;23;20008;-89
2023/09/21 09:08:22;;;;;;;6.75;2.58;;;;;;;-145.67;100.00;66521.78;6157187;23;20015;-89
2023/09/21 09:10:48;;;;;;;10.27;3.05;;;;;;;-145.67;100.00;66521.78;6207828;23;20430;-87
2023/09/21 09:13:13;;;;;;;8.15;2.50;;;;;;;-145.67;100.00;66521.78;6208337;23;20125;-87
2023/09/21 09:15:41;;;;;;;7.18;2.30;;;;;;;-145.67;100.00;66521.78;6184077;23;20053;-87
2023/09/21 09:18:07;;;;;;;10.18;3.90;;;;;;;-145.67;100.00;66521.78;6182832;23;20058;-87
2023/09/21 09:20:36;;;;;;;12.90;4.20;;;;;;;-145.67;100.00;66521.78;6184921;23;20005;-87
2023/09/21 09:23:02;;;;;;;14.57;5.20;;;;;;;-145.67;100.00;66521.78;6185707;23;20117;-87
2023/09/21 09:25:28;;;;;;;15.48;4.68;;;;;;;-145.67;100.00;66521.78;6184693;23;20024;-90
2023/09/21 09:27:54;;;;;;;16.25;4.95;;;;;;;-145.67;100.00;66521.78;6209647;23;20004;-90
2023/09/21 09:30:22;;;;;;;14.35;4.80;;;;;;;-145.67;100.00;66521.78;6210976;23;20009;-89
2023/09/21 09:32:50;;;;;;;14.68;5.00;;;;;;;-145.67;100.00;66521.78;6187838;23;20008;-89
2023/09/21 09:35:17;;;;;;;11.77;3.90;;;;;;;-145.67;100.00;66521.78;6212292;23;20063;-87
2023/09/21 09:37:43;;;;;;;11.63;4.28;;;;;;;-145.67;100.00;66521.78;6211714;23;20627;-87
2023/09/21 09:40:18;;;;;;;12.52;4.75;;;;;;;-145.67;100.00;66521.78;6213220;23;20000;-89
2023/09/21 09:42:43;;;;;;;18.63;5.50;;;;;;;-145.67;100.00;66521.78;6186794;23;20100;-88
2023/09/21 09:45:18;;;;;;;18.70;6.30;;;;;;;-145.67;100.00;66521.78;6211514;23;20442;-88
2023/09/21 09:47:50;;;;;;;16.10;4.68;;;;;;;-145.67;100.00;66521.78;6212383;23;20095;-89
2023/09/21 09:50:21;;;;;;;13.55;4.32;;;;;;;-145.67;100.00;66521.78;6184478;23;20001;-89
2023/09/21 09:53:13;;;;;;;11.60;3.27;;;;;;;-145.67;100.00;66521.78;6160288;23;20427;-89
2023/09/21 09:55:42;;;;;;;14.18;4.20;;;;;;;-145.67;100.00;66521.78;6185189;23;20239;-89
2023/09/21 09:58:08;;;;;;;13.82;4.90;;;;;;;-145.67;100.00;66521.78;6212151;23;20395;-89
2023/09/21 10:00:35;;;;;;;13.45;4.20;;;;;;;-145.67;100.00;66521.78;6184505;23;20004;-89
2023/09/21 10:03:03;;;;;;;12.85;4.80;;;;;;;-145.67;100.00;66521.78;6211407;23;20008;-89
2023/09/21 10:05:29;;;;;;;17.05;5.85;;;;;;;-145.67;100.00;66521.78;6216848;23;20028;-89
2023/09/21 10:07:59;;;;;;;13.73;5.60;;;;;;;-145.67;100.00;66521.78;6223565;23;20001;-89
2023/09/21 10:10:27;;;;;;;17.83;7.00;;;;;;;-145.67;100.00;66521.78;6174321;23;20004;-89
2023/09/21 10:12:56;;;;;;;19.13;8.00;;;;;;;-145.67;100.00;66521.78;6166451;23;20004;-89
2023/09/21 10:15:24;;;;;;;12.85;6.72;;;;;;;-145.67;100.00;66521.78;6186198;23;20004;-89
2023/09/21 10:17:50;;;;;;;11.15;8.00;;;;;;;-145.67;100.00;66521.78;6211821;23;19997;-89
2023/09/21 10:20:27;;;;;;;9.75;5.07;;;;;;;-145.67;100.00;66521.78;6186510;23;20039;-88
2023/09/21 10:22:54;;;;;;;9.35;4.63;;;;;;;-145.67;100.00;66521.78;6214612;23;20011;-89
2023/09/21 10:25:39;;;;;;;9.52;5.30;;;;;;;-145.67;100.00;66521.78;6211216;23;20338;-89
2023/09/21 10:28:27;;;;;;;11.43;4.30;;;;;;;-145.67;100.00;66521.78;6185890;23;20326;-88
2023/09/21 10:31:09;;;;;;;22.73;9.52;;;;;;;-145.67;100.00;66521.78;6213778;23;20004;-89
2023/09/21 10:34:05;;;;;;;18.80;6.10;;;;;;;-145.67;100.00;66521.78;6187347;23;20008;-89
2023/09/21 10:36:31;;;;;;;8.80;3.08;;;;;;;-145.67;100.00;66521.78;6160791;23;20012;-91
2023/09/21 10:39:05;;;;;;;7.63;2.70;;;;;;;-145.67;100.00;66521.78;6186300;23;20008;-92
2023/09/21 10:41:32;;;;;;;8.05;3.08;;;;;;;-145.67;100.00;66521.78;6185681;23;20008;-93
2023/09/21 10:44:02;;;;;;;9.20;3.28;;;;;;;-145.67;100.00;66521.78;6190190;23;20291;-93
2023/09/21 10:46:30;;;;;;;6.10;2.88;;;;;;;-145.67;100.00;66521.78;6211605;23;20043;-93
2023/09/21 10:49:05;;;;;;;10.80;3.45;;;;;;;-145.67;100.00;66521.78;6210757;23;20359;-93
2023/09/21 10:51:32;;;;;;;9.88;3.92;;;;;;;-145.67;100.00;66521.78;6212374;23;20341;-92
2023/09/21 10:54:03;;;;;;;11.13;3.67;;;;;;;-145.67;100.00;66521.78;6212183;23;20005;-93
2023/09/21 10:56:28;;;;;;;8.75;3.88;;;;;;;-145.67;100.00;66521.78;6212662;23;20043;-92
2023/09/21 10:58:54;;;;;;;7.90;4.03;;;;;;;-145.67;100.00;66521.78;6185911;23;20334;-93
2023/09/21 11:01:21;;;;;;;9.75;5.20;;;;;;;-145.67;100.00;66521.78;6210681;23;20039;-93
2023/09/21 11:03:48;;;;;;;11.68;5.78;;;;;;;-145.67;100.00;66521.78;6209204;23;20004;-94
2023/09/21 11:06:17;;;;;;;11.05;5.15;;;;;;;-145.67;100.00;66521.78;6214188;23;20011;-91
2023/09/21 11:08:49;;;;;;;12.38;5.10;;;;;;;-145.67;100.00;66521.78;6187511;23;20485;-92
2023/09/21 11:11:21;;;;;;;7.75;4.13;;;;;;;-145.67;100.00;66521.78;6212382;23;20000;-92
2023/09/21 11:13:53;;;;;;;10.02;5.30;;;;;;;-145.67;100.00;66521.78;6213780;23;20000;-90
2023/09/21 11:16:19;;;;;;;11.32;5.28;;;;;;;-145.67;100.00;66521.78;6214183;23;20001;-90
2023/09/21 11:18:46;;;;;;;11.93;5.78;;;;;;;-145.67;100.00;66521.78;6213710;23;20007;-90
2023/09/21 11:21:12;;;;;;;12.27;6.90;;;;;;;-145.67;100.00;66521.78;6211553;23;20005;-90
2023/09/21 11:23:43;;;;;;;16.70;6.32;;;;;;;-145.67;100.00;66521.78;6212118;23;20369;-91
2023/09/21 11:26:11;;;;;;;11.00;5.38;;;;;;;-145.67;100.00;66521.78;6212233;23;20051;-91
2023/09/21 11:28:37;;;;;;;9.05;4.78;;;;;;;-145.67;100.00;66521.78;6210660;23;20453;-91
2023/09/21 11:31:05;;;;;;;8.93;4.70;;;;;;;-145.67;100.00;66521.78;6185046;23;20007;-91
2023/09/21 11:33:32;;;;;;;9.48;5.05;;;;;;;-145.67;100.00;66521.78;6210207;23;20289;-93
2023/09/21 11:35:58;;;;;;;11.07;5.60;;;;;;;-145.67;100.00;66521.78;6209566;23;20058;-90
2023/09/21 11:38:24;;;;;;;9.25;5.05;;;;;;;-145.67;100.00;66521.78;6211974;23;20071;-92
2023/09/21 11:40:50;;;;;;;9.10;4.68;;;;;;;-145.67;100.00;66521.78;6215224;23;20000;-91
2023/09/21 11:43:16;;;;;;;7.13;3.80;;;;;;;-145.67;100.00;66521.78;6216125;23;20377;-92
2023/09/21 11:45:46;;;;;;;9.90;5.25;;;;;;;-145.67;100.00;66521.78;6218672;23;20016;-92
2023/09/21 11:48:12;;;;;;;8.88;4.82;;;;;;;-145.67;100.00;66521.78;6214463;23;20013;-92
2023/09/21 11:50:39;;;;;;;8.88;4.70;;;;;;;-145.67;100.00;66521.78;6219126;23;20103;-91
2023/09/21 11:53:08;;;;;;;8.98;5.68;;;;;;;-145.67;100.00;66521.78;6216191;23;20294;-94
2023/09/21 11:55:36;;;;;;;12.32;6.97;;;;;;;-145.67;100.00;66521.78;6186908;23;20027;-92
2023/09/21 11:58:09;;;;;;;11.30;5.28;;;;;;;-145.67;100.00;66521.78;6210112;23;20082;-89
2023/09/21 12:00:43;;;;;;;9.63;6.38;;;;;;;-145.67;100.00;66521.78;6211878;23;20410;-94
2023/09/21 12:03:21;;;;;;;11.90;6.10;;;;;;;-145.67;100.00;66521.78;6187219;23;20000;-93
2023/09/21 12:05:46;;;;;;;15.70;7.90;;;;;;;-145.67;100.00;66521.78;6212698;23;20027;-95
2023/09/21 12:08:16;;;;;;;10.68;6.45;;;;;;;-145.67;100.00;66521.78;6186255;23;20016;-95
2023/09/21 12:10:46;;;;;;;12.27;6.38;;;;;;;-145.67;100.00;66521.78;6211413;23;19997;-95
2023/09/21 12:13:15;;;;;;;6.97;3.83;;;;;;;19.18;100.00;100150.63;6214610;23;20015;-93
2023/09/21 12:15:42;;;;;;;8.65;4.18;;;;;;;17.01;100.00;99221.91;6214893;23;20091;-95
2023/09/21 12:18:07;;;;;;;6.45;3.90;;;;;;;17.06;100.00;99232.56;6215113;23;20436;-94
2023/09/21 12:20:34;;;;;;;10.02;4.55;;;;;;;17.07;100.00;99232.22;6211157;23;20027;-94
2023/09/21 12:23:00;;;;;;;8.48;4.53;;;;;;;17.11;100.00;99239.72;6185931;23;19997;-95
2023/09/21 12:25:26;;;;;;;7.00;4.10;;;;;;;17.00;100.00;99231.16;6210847;23;20014;-95
2023/09/21 12:27:52;;;;;;;7.47;4.60;;;;;;;16.91;100.00;99238.53;6212642;23;20020;-95
2023/09/21 12:30:17;;;;;;;8.35;4.50;;;;;;;-145.67;100.00;66521.78;6212566;23;20000;-94
2023/09/21 12:32:43;;;;;;;14.82;6.20;;;;;;;-145.67;100.00;66521.78;6210042;23;20027;-95
2023/09/21 12:35:10;;;;;;;11.25;6.82;;;;;;;-145.67;100.00;66521.78;6211111;23;20334;-95
2023/09/21 12:37:37;;;;;;;9.63;5.15;;;;;;;-145.67;100.00;66521.78;6186847;23;20001;-94
2023/09/21 12:40:15;;;;;;;13.82;6.05;;;;;;;-145.67;100.00;66521.78;6223045;23;20004;-94
2023/09/21 12:42:45;;;;;;;7.15;4.28;;;;;;;-145.67;100.00;66521.78;6223319;23;19992;-93
2023/09/21 12:45:17;;;;;;;6.90;4.22;;;;;;;-145.67;100.00;66521.78;6216252;23;20016;-91
2023/09/21 12:47:43;;;;;;;7.93;4.20;;;;;;;-145.67;100.00;66521.78;6217814;23;20025;-92
2023/09/21 12:50:09;;;;;;;6.50;3.92;;;;;;;-145.67;100.00;66521.78;6193737;23;20007;-94
2023/09/21 12:52:40;;;;;;;5.47;2.85;;;;;;;-145.67;100.00;66521.78;6232610;23;20028;-92
2023/09/21 12:55:06;;;;;;;5.57;2.50;;;;;;;-145.67;100.00;66521.78;6225066;23;20072;-93
2023/09/21 12:57:40;;;;;;;5.78;3.15;;;;;;;-145.67;100.00;66521.78;6191889;23;20068;-93
2023/09/21 13:00:19;;;;;;;8.57;3.58;;;;;;;-145.67;100.00;66521.78;6217214;23;20036;-94
2023/09/21 13:02:45;;;;;;;8.68;4.50;;;;;;;-145.67;100.00;66521.78;6189895;23;20009;-93
2023/09/21 13:05:12;;;;;;;7.72;3.45;;;;;;;-102.07;100.00;66521.78;6186990;23;20059;-93
2023/09/21 13:07:45;;;;;;;5.47;2.97;;;;;;;-145.22;100.00;99238.53;6213941;23;20009;-92
2023/09/21 13:10:13;;;;;;;8.75;3.65;;;;;;;-145.67;100.00;66521.78;6162226;23;20080;-94
2023/09/21 13:12:39;;;;;;;6.72;3.50;;;;;;;-145.67;100.00;66521.78;6213502;23;20023;-94
2023/09/21 13:15:05;;;;;;;5.63;2.90;;;;;;;-145.67;100.00;66521.78;6213145;23;20422;-94
2023/09/21 13:17:31;;;;;;;4.70;2.42;;;;;;;-145.67;100.00;66521.78;6186901;23;20023;-94
2023/09/21 13:19:57;;;;;;;6.50;3.45;;;;;;;-145.67;100.00;66521.78;6213853;23;20008;-95
2023/09/21 13:22:23;;;;;;;10.20;5.03;;;;;;;16.63;100.00;99278.75;6214640;23;20004;-94
2023/09/21 13:24:48;;;;;;;10.15;4.80;;;;;;;16.37;100.00;99274.22;6224532;23;20004;-93
2023/09/21 13:27:14;;;;;;;6.50;3.30;;;;;;;16.37;100.00;99257.16;6173813;23;20008;-94
2023/09/21 13:29:40;;;;;;;8.73;4.72;;;;;;;16.46;100.00;99253.31;6214298;23;20093;-96
2023/09/21 13:32:07;;;;;;;7.82;3.63;;;;;;;16.57;100.00;99247.56;6212576;23;20315;-92
2023/09/21 13:34:32;;;;;;;6.72;3.10;;;;;;;16.63;100.00;99232.72;6185245;23;20347;-92
2023/09/21 13:36:58;;;;;;;5.65;2.83;;;;;;;16.69;100.00;99231.44;6213163;23;20032;-94
2023/09/21 13:39:23;;;;;;;6.25;3.10;;;;;;;16.46;100.00;99228.16;6215235;23;20001;-95
2023/09/21 13:41:59;;;;;;;6.35;2.53;;;;;;;16.44;100.00;99252.84;6214915;23;20001;-96
2023/09/21 13:44:24;;;;;;;6.85;2.95;;;;;;;16.45;100.00;99242.78;6214797;23;20440;-93
2023/09/21 13:46:51;;;;;;;9.25;3.05;;;;;;;16.39;100.00;99238.69;6215994;23;20008;-95
2023/09/21 13:49:17;;;;;;;7.15;2.90;;;;;;;16.35;100.00;99243.94;6223631;23;20012;-94
2023/09/21 13:51:43;;;;;;;6.38;3.60;;;;;;;16.34;100.00;99258.59;6231848;23;20008;-94
2023/09/21 13:54:09;;;;;;;9.52;4.03;;;;;;;16.47;100.00;99263.03;6234147;23;20080;-94
2023/09/21 13:56:34;;;;;;;11.02;4.75;;;;;;;16.33;100.00;99257.00;6232359;23;20088;-94
2023/09/21 13:59:00;;;;;;;8.45;3.85;;;;;;;16.34;100.00;99255.88;6217452;23;20154;-91
2023/09/21 14:01:26;;;;;;;9.48;3.88;;;;;;;16.32;100.00;99241.88;6216728;23;20138;-91
2023/09/21 14:03:52;;;;;;;5.57;2.97;;;;;;;16.34;100.00;99246.97;6186991;23;20207;-92
2023/09/21 14:06:21;;;;;;;6.32;3.17;;;;;;;-145.67;100.00;66521.78;6186740;23;20024;-93
2023/09/21 14:08:46;;;;;;;8.25;3.35;;;;;;;16.49;100.00;99232.94;6188909;23;20405;-94
2023/09/21 14:11:12;;;;;;;7.07;3.30;;;;;;;16.48;100.00;99234.84;6229687;23;20020;-93
2023/09/21 14:13:37;;;;;;;4.80;3.00;;;;;;;16.31;100.00;99243.00;6204649;23;20032;-92
2023/09/21 14:16:03;;;;;;;6.15;3.10;;;;;;;16.45;100.00;99243.63;6189576;23;20016;-93
2023/09/21 14:18:29;;;;;;;7.00;2.75;;;;;;;16.44;100.00;99242.00;6214753;23;20066;-93
2023/09/21 14:20:58;;;;;;;6.13;2.47;;;;;;;16.44;100.00;76019.94;6188502;23;20001;-94
2023/09/21 14:23:24;;;;;;;7.18;2.60;;;;;;;-145.67;100.00;66521.78;6214120;23;20036;-94
2023/09/21 14:25:49;;;;;;;5.95;2.45;;;;;;;-145.67;100.00;66521.78;6188491;23;20041;-92
2023/09/21 14:28:15;;;;;;;5.10;2.00;;;;;;;-145.67;100.00;66521.78;6214359;23;20000;-93
2023/09/21 14:30:40;;;;;;;5.63;1.90;;;;;;;-145.67;100.00;66521.78;6214891;23;20079;-94
2023/09/21 14:33:07;;;;;;;4.47;2.25;;;;;;;-145.67;100.00;66521.78;6218484;23;20013;-94
2023/09/21 14:35:34;;;;;;;4.13;1.80;;;;;;;-145.67;100.00;66521.78;6219377;23;20012;-96
2023/09/21 14:38:01;;;;;;;4.97;2.20;;;;;;;-145.67;100.00;66521.78;6194197;23;20107;-95
2023/09/21 14:40:27;;;;;;;5.15;2.15;;;;;;;-145.67;100.00;66521.78;6199765;23;20045;-94
2023/09/21 14:42:53;;;;;;;3.58;1.70;;;;;;;-145.67;100.00;66521.78;6203769;23;20008;-94
2023/09/21 14:45:21;;;;;;;2.30;1.50;;;;;;;-145.67;100.00;66521.78;6226824;23;20016;-94
2023/09/21 14:47:47;;;;;;;3.83;1.52;;;;;;;-145.67;100.00;66521.78;6234392;23;20342;-96
2023/09/21 14:50:12;;;;;;;3.17;1.88;;;;;;;-145.67;100.00;66521.78;6201860;23;20000;-95
2023/09/21 14:52:38;;;;;;;5.38;2.78;;;;;;;-145.67;100.00;66521.78;6230295;23;19996;-93
2023/09/21 14:55:04;;;;;;;3.63;2.13;;;;;;;-145.67;100.00;66521.78;6226811;23;20008;-94
2023/09/21 14:57:30;;;;;;;4.18;2.17;;;;;;;-145.67;100.00;66521.78;6231507;23;20008;-95
2023/09/21 14:59:56;;;;;;;5.55;2.53;;;;;;;-145.67;100.00;66521.78;6234425;23;20005;-95
2023/09/21 15:02:21;;;;;;;4.65;2.38;;;;;;;-145.67;100.00;66521.78;6239763;22;20019;-95
